Helvetia, Oregon
Current Conditions -  °F | °C
As of 4:53 PM on Friday 28 Nov 2014 (Local Time) from KHIO Reporting Station
Moderate Rain Moderate Rain  
Wind Chill: 43°   Ceiling: 1800
Heat Index: 49°   Visibility: 4mi
Dew Point: 46°   Wind: 16mph
Humidity: 90%   Direction: 310°NW
Pressure: 29.49"   Gusts: 31mph
Location:  45.6165°N, 122.954°W
Report Text: KHIO 290053Z 31014G27KT 4SM RA BR SCT013 BKN018 OVC050 09/08 A2949 RMK AO2 PK WND 32027/0045 WSHFT 0032 SLP987 P0007 T00940078
Loading
Personal Weather Stations






























Interactive Weather Map New forecast layout! Learn more

10-Day Weather Forecast

Advertisements
Track Severe Weather on mobile